Time;durP1;ratioP1;P1;durP2;ratioP2;P2;SDS_P1;SDS_P2;PMS_P1;PMS_P2;Temp;Humidity;BMP_temperature;BMP_pressure;BME280_temperature;BME280_humidity;BME280_pressure;Samples;Min_cycle;Max_cycle;Signal;HPM_P1;HPM_P2
2022/09/20 00:02:26;;;;;;;1.23;0.97;;;9.00;99.90;;;;;;5011521;28;20451;-49
2022/09/20 00:04:53;;;;;;;1.63;0.93;;;8.40;99.90;;;;;;5011994;28;20515;-45
2022/09/20 00:07:20;;;;;;;1.20;0.93;;;8.40;99.90;;;;;;5011402;28;20985;-48
2022/09/20 00:09:48;;;;;;;1.33;0.87;;;8.50;99.90;;;;;;5010711;28;20568;-45
2022/09/20 00:12:15;;;;;;;1.30;1.07;;;8.20;99.90;;;;;;5011461;28;20432;-44
2022/09/20 00:14:42;;;;;;;1.30;0.80;;;8.20;99.90;;;;;;5011255;28;20925;-45
2022/09/20 00:17:09;;;;;;;2.90;1.10;;;8.20;99.90;;;;;;5010913;28;20510;-45
2022/09/20 00:19:36;;;;;;;2.43;1.43;;;8.40;99.90;;;;;;5010668;28;20444;-44
2022/09/20 00:22:03;;;;;;;2.20;1.30;;;8.40;99.90;;;;;;5011453;28;21011;-46
2022/09/20 00:24:30;;;;;;;1.57;1.23;;;8.30;99.90;;;;;;5011494;28;20451;-46
2022/09/20 00:26:58;;;;;;;1.80;1.00;;;8.60;99.90;;;;;;5011385;28;20460;-45
2022/09/20 00:29:25;;;;;;;1.33;0.97;;;8.70;99.90;;;;;;5010626;28;20513;-45
2022/09/20 00:31:52;;;;;;;4.27;1.40;;;8.80;99.90;;;;;;5010758;28;20468;-47
2022/09/20 00:37:03;;;;;;;1.57;0.83;;;8.70;99.90;;;;;;5010867;28;20487;-48
2022/09/20 00:39:31;;;;;;;1.60;0.97;;;8.70;99.90;;;;;;5010372;28;20479;-48
2022/09/20 00:41:59;;;;;;;1.90;1.10;;;8.60;99.90;;;;;;5011191;28;20481;-46
2022/09/20 00:44:44;;;;;;;1.70;1.07;;;8.40;99.90;;;;;;5011137;28;20522;-48
2022/09/20 00:47:19;;;;;;;2.40;1.27;;;8.20;99.90;;;;;;5011036;28;20468;-47
2022/09/20 00:49:46;;;;;;;2.00;1.20;;;8.00;99.90;;;;;;5010269;28;20507;-45
2022/09/20 00:52:14;;;;;;;3.50;0.93;;;7.80;99.90;;;;;;5010861;28;20518;-48
2022/09/20 00:54:41;;;;;;;2.40;0.93;;;7.70;99.90;;;;;;5011554;28;20941;-48
2022/09/20 00:57:10;;;;;;;1.73;1.10;;;7.90;99.90;;;;;;5011155;28;20487;-47
2022/09/20 00:59:41;;;;;;;1.50;1.00;;;7.90;99.90;;;;;;5010589;28;20459;-50
2022/09/20 01:02:14;;;;;;;3.20;1.10;;;8.00;99.90;;;;;;5011100;28;20455;-47
2022/09/20 01:04:43;;;;;;;1.93;1.20;;;8.30;99.90;;;;;;5010871;28;20470;-47
2022/09/20 01:07:13;;;;;;;1.40;1.13;;;8.40;99.90;;;;;;5010635;28;20463;-49
2022/09/20 01:09:40;;;;;;;2.03;1.00;;;8.50;99.90;;;;;;5012688;28;20517;-46
2022/09/20 01:12:13;;;;;;;1.20;0.80;;;8.60;99.90;;;;;;5014912;28;20925;-48
2022/09/20 01:14:43;;;;;;;1.77;1.33;;;8.70;99.90;;;;;;5014716;28;20439;-47
2022/09/20 01:17:11;;;;;;;1.80;1.00;;;8.80;99.90;;;;;;5014020;28;20513;-46
2022/09/20 01:19:42;;;;;;;2.27;1.10;;;9.00;99.90;;;;;;5013655;28;20439;-45
2022/09/20 01:22:18;;;;;;;1.20;0.70;;;9.00;99.90;;;;;;5014746;28;20475;-47
2022/09/20 01:24:52;;;;;;;2.70;0.93;;;9.10;99.90;;;;;;5014181;28;20826;-47
2022/09/20 01:27:26;;;;;;;1.80;1.10;;;9.10;99.90;;;;;;5014445;28;20471;-47
2022/09/20 01:30:05;;;;;;;1.80;0.80;;;9.20;99.90;;;;;;5013821;28;20769;-48
2022/09/20 01:32:42;;;;;;;2.27;1.00;;;9.00;99.90;;;;;;5013843;28;20537;-48
2022/09/20 01:35:11;;;;;;;1.50;1.00;;;8.80;99.90;;;;;;5012698;28;20537;-49
2022/09/20 01:37:47;;;;;;;1.60;0.90;;;8.70;99.90;;;;;;5014059;28;20483;-49
2022/09/20 01:40:25;;;;;;;1.20;0.80;;;8.70;99.90;;;;;;5013561;28;20816;-47
2022/09/20 01:43:02;;;;;;;1.70;1.20;;;8.80;99.90;;;;;;5014109;28;20450;-47
2022/09/20 01:45:32;;;;;;;2.03;0.70;;;8.70;99.90;;;;;;5014018;28;20439;-48
2022/09/20 01:48:08;;;;;;;1.90;1.60;;;8.60;99.90;;;;;;5014064;28;20471;-46
2022/09/20 01:50:44;;;;;;;1.47;1.10;;;8.70;99.90;;;;;;5013379;28;20554;-47
2022/09/20 01:53:46;;;;;;;1.60;0.90;;;8.60;99.90;;;;;;5014263;28;20494;-49
2022/09/20 01:56:47;;;;;;;5.37;1.30;;;8.70;99.90;;;;;;4998701;28;20542;-48
2022/09/20 01:59:47;;;;;;;16.63;1.87;;;8.50;99.90;;;;;;5013105;28;20451;-49
2022/09/20 02:02:45;;;;;;;2.83;1.10;;;8.40;99.90;;;;;;4998418;28;20447;-47
2022/09/20 02:05:43;;;;;;;1.10;0.70;;;8.40;99.90;;;;;;5013671;28;20455;-46
2022/09/20 02:08:44;;;;;;;1.37;1.07;;;8.30;99.90;;;;;;5013680;28;20455;-45
2022/09/20 02:11:15;;;;;;;1.10;0.80;;;8.40;99.90;;;;;;5013561;28;20518;-47
2022/09/20 02:14:07;;;;;;;1.83;1.00;;;8.30;99.90;;;;;;5013295;28;20478;-47
2022/09/20 02:16:53;;;;;;;5.77;1.07;;;8.40;99.90;;;;;;5010894;28;20491;-47
2022/09/20 02:19:56;;;;;;;4.70;3.93;;;8.30;99.90;;;;;;5012368;28;20448;-46
2022/09/20 02:22:41;;;;;;;1.57;1.30;;;8.40;99.90;;;;;;5012933;28;20486;-47
2022/09/20 02:25:22;;;;;;;1.63;1.20;;;8.00;99.90;;;;;;5012964;28;20459;-47
2022/09/20 02:28:02;;;;;;;2.03;0.93;;;7.60;99.90;;;;;;5013268;28;20470;-49
2022/09/20 02:30:44;;;;;;;1.93;0.90;;;7.80;99.90;;;;;;5012550;28;20510;-49
2022/09/20 02:33:34;;;;;;;2.30;0.97;;;7.90;99.90;;;;;;5012847;28;20455;-47
2022/09/20 02:36:19;;;;;;;2.23;0.83;;;8.10;99.90;;;;;;5012972;28;20474;-46
2022/09/20 02:38:59;;;;;;;1.40;0.80;;;7.90;99.90;;;;;;5012552;28;20444;-45
2022/09/20 02:41:59;;;;;;;1.20;0.83;;;7.50;99.90;;;;;;5013117;28;20967;-47
2022/09/20 02:44:52;;;;;;;1.83;0.80;;;7.40;99.90;;;;;;5013138;28;20510;-49
2022/09/20 02:47:26;;;;;;;1.53;1.17;;;7.40;99.90;;;;;;5010513;28;20499;-46
2022/09/20 02:50:04;;;;;;;1.80;0.80;;;7.50;99.90;;;;;;5012248;28;20448;-47
2022/09/20 02:52:39;;;;;;;1.10;0.97;;;7.60;99.90;;;;;;5012810;28;21134;-47
2022/09/20 02:55:15;;;;;;;1.03;0.90;;;7.90;99.90;;;;;;5012677;28;20427;-50
2022/09/20 02:57:52;;;;;;;1.40;0.77;;;7.90;99.90;;;;;;5012604;28;20525;-45
2022/09/20 03:00:23;;;;;;;1.30;0.80;;;8.00;99.90;;;;;;5012125;28;20453;-47
2022/09/20 03:03:03;;;;;;;1.50;0.83;;;7.90;99.90;;;;;;5012685;28;20458;-47
2022/09/20 03:05:37;;;;;;;1.30;0.80;;;8.00;99.90;;;;;;5012513;28;20776;-47
2022/09/20 03:08:28;;;;;;;1.30;0.70;;;8.10;99.90;;;;;;5012630;28;20451;-47
2022/09/20 03:11:08;;;;;;;1.13;0.80;;;7.90;99.90;;;;;;5011848;28;20482;-46
2022/09/20 03:13:50;;;;;;;1.50;1.10;;;7.70;99.90;;;;;;5012763;28;20459;-46
2022/09/20 03:16:27;;;;;;;1.80;0.90;;;7.10;99.90;;;;;;5012489;28;20507;-46
2022/09/20 03:19:02;;;;;;;2.45;1.02;;;7.50;99.90;;;;;;5011935;28;20443;-47
2022/09/20 03:21:46;;;;;;;1.47;0.90;;;7.80;99.90;;;;;;5012367;28;20641;-45
2022/09/20 03:24:25;;;;;;;1.10;0.80;;;7.90;99.90;;;;;;5012392;28;20550;-48
2022/09/20 03:27:02;;;;;;;2.10;1.20;;;7.90;99.90;;;;;;5012071;28;20455;-45
2022/09/20 03:29:43;;;;;;;1.20;0.80;;;7.90;99.90;;;;;;5011709;28;20502;-46
2022/09/20 03:32:25;;;;;;;1.30;0.67;;;7.70;99.90;;;;;;5011481;28;20788;-46
2022/09/20 03:35:05;;;;;;;1.47;0.83;;;7.50;99.90;;;;;;5010548;28;20536;-46
2022/09/20 03:37:54;;;;;;;1.20;0.97;;;7.50;99.90;;;;;;5011814;28;20483;-47
2022/09/20 03:40:48;;;;;;;1.70;1.10;;;7.70;99.90;;;;;;5011567;28;20439;-48
2022/09/20 03:43:29;;;;;;;1.30;1.00;;;7.90;99.90;;;;;;5012495;28;20451;-46
2022/09/20 03:46:06;;;;;;;3.80;1.10;;;7.70;99.90;;;;;;5011719;28;20455;-46
2022/09/20 03:48:59;;;;;;;2.43;0.90;;;7.40;99.90;;;;;;5011989;28;20459;-46
2022/09/20 03:51:31;;;;;;;1.23;0.80;;;7.50;99.90;;;;;;5012168;28;20483;-47
2022/09/20 03:54:34;;;;;;;2.83;0.90;;;7.60;99.90;;;;;;5011831;28;20451;-47
2022/09/20 03:57:27;;;;;;;1.30;0.80;;;7.70;99.90;;;;;;5011421;28;20479;-46
2022/09/20 04:00:23;;;;;;;1.30;1.00;;;7.70;99.90;;;;;;5011167;28;20533;-46
2022/09/20 04:03:08;;;;;;;1.10;0.70;;;7.40;99.90;;;;;;5010067;28;20447;-45
2022/09/20 04:05:47;;;;;;;1.80;1.40;;;7.30;99.90;;;;;;5011480;28;20830;-47
2022/09/20 04:08:28;;;;;;;4.47;2.60;;;7.30;99.90;;;;;;5011442;28;20439;-46
2022/09/20 04:11:04;;;;;;;2.83;1.10;;;7.40;99.90;;;;;;5010710;28;20443;-47
2022/09/20 04:13:36;;;;;;;2.50;1.37;;;7.30;99.90;;;;;;5011463;28;20436;-49
2022/09/20 04:16:27;;;;;;;9.70;6.73;;;7.30;99.90;;;;;;5012558;28;20483;-47
2022/09/20 04:18:58;;;;;;;3.13;2.43;;;7.50;99.90;;;;;;5010400;28;20479;-48
2022/09/20 04:21:31;;;;;;;1.60;1.37;;;7.50;99.90;;;;;;5011581;28;20542;-45
2022/09/20 04:24:04;;;;;;;5.47;3.67;;;7.50;99.90;;;;;;5011463;28;20485;-46
2022/09/20 04:26:35;;;;;;;4.23;3.43;;;7.50;99.90;;;;;;5011245;28;20491;-47
2022/09/20 04:29:15;;;;;;;6.63;5.97;;;7.50;99.90;;;;;;5010668;28;20444;-45
2022/09/20 04:31:49;;;;;;;6.13;4.67;;;7.40;99.90;;;;;;5010740;28;20474;-45
2022/09/20 04:34:22;;;;;;;2.43;1.50;;;7.40;99.90;;;;;;5009652;28;20535;-46
2022/09/20 04:36:57;;;;;;;1.60;1.20;;;7.30;99.90;;;;;;5011093;28;20451;-47
2022/09/20 04:39:41;;;;;;;1.70;1.20;;;7.00;99.90;;;;;;5010419;28;20435;-45
2022/09/20 04:42:44;;;;;;;2.53;1.10;;;7.00;99.90;;;;;;5011029;28;20852;-47
2022/09/20 04:46:00;;;;;;;2.07;1.30;;;7.00;99.90;;;;;;5014366;28;20443;-46
2022/09/20 04:49:21;;;;;;;2.30;1.77;;;7.10;99.90;;;;;;4954441;29;20532;-46
2022/09/20 04:52:34;;;;;;;2.07;1.50;;;7.40;99.90;;;;;;4936235;28;20446;-47
2022/09/20 04:55:30;;;;;;;4.83;2.40;;;7.40;99.90;;;;;;5014734;28;20814;-49
2022/09/20 04:58:36;;;;;;;2.30;2.10;;;7.40;99.90;;;;;;5014769;28;20596;-46
2022/09/20 05:02:02;;;;;;;1.60;1.40;;;7.30;99.90;;;;;;5013235;28;20501;-47
2022/09/20 05:05:13;;;;;;;10.90;6.80;;;7.30;99.90;;;;;;5015202;28;20518;-47
2022/09/20 05:08:09;;;;;;;7.33;5.73;;;7.30;99.90;;;;;;5014836;28;20459;-45
2022/09/20 05:10:54;;;;;;;3.03;2.73;;;7.30;99.90;;;;;;5014381;28;20451;-47
2022/09/20 05:13:35;;;;;;;2.30;2.03;;;7.50;99.90;;;;;;5014817;28;20457;-47
2022/09/20 05:16:08;;;;;;;1.80;1.20;;;7.60;99.90;;;;;;5014494;28;20878;-46
2022/09/20 05:18:58;;;;;;;2.70;1.30;;;7.60;99.90;;;;;;5014606;28;20479;-46
2022/09/20 05:21:48;;;;;;;1.40;1.10;;;7.60;99.90;;;;;;5005352;28;20451;-47
2022/09/20 05:24:37;;;;;;;1.60;1.40;;;7.50;99.90;;;;;;5014579;28;20525;-46
2022/09/20 05:27:18;;;;;;;2.70;0.90;;;7.50;99.90;;;;;;5014526;28;20550;-48
2022/09/20 05:29:53;;;;;;;1.77;1.50;;;7.60;99.90;;;;;;5013772;28;20455;-46
2022/09/20 05:32:29;;;;;;;2.30;1.60;;;7.70;99.90;;;;;;5014117;28;20439;-47
2022/09/20 05:35:01;;;;;;;6.20;3.80;;;7.60;99.90;;;;;;5013546;28;20453;-46
2022/09/20 05:37:37;;;;;;;10.40;5.30;;;7.60;99.90;;;;;;5014333;28;20533;-47
2022/09/20 05:40:15;;;;;;;8.37;4.87;;;7.70;99.90;;;;;;5013418;28;20462;-45
2022/09/20 05:42:52;;;;;;;8.60;5.50;;;7.70;99.90;;;;;;5014220;28;20455;-47
2022/09/20 05:46:02;;;;;;;6.60;3.20;;;7.80;99.90;;;;;;5014170;28;20453;-46
2022/09/20 05:48:37;;;;;;;3.13;2.13;;;7.80;99.90;;;;;;5014064;28;20501;-47
2022/09/20 05:51:16;;;;;;;6.67;2.40;;;7.90;99.90;;;;;;5013383;28;20514;-46
2022/09/20 05:54:24;;;;;;;2.43;1.90;;;8.10;99.90;;;;;;5013993;28;20497;-46
2022/09/20 05:57:06;;;;;;;2.03;1.43;;;8.20;99.90;;;;;;5006221;28;20555;-46
2022/09/20 05:59:48;;;;;;;3.23;1.83;;;8.00;99.90;;;;;;5013295;28;21078;-46
2022/09/20 06:02:27;;;;;;;2.20;1.90;;;7.90;99.90;;;;;;5013961;28;20465;-46
2022/09/20 06:05:02;;;;;;;2.27;1.20;;;7.80;99.90;;;;;;5013783;28;20475;-47
2022/09/20 06:07:45;;;;;;;3.13;1.50;;;7.90;99.90;;;;;;5014014;28;20467;-46
2022/09/20 06:10:38;;;;;;;2.60;2.13;;;7.90;99.90;;;;;;5012987;28;20432;-47
2022/09/20 06:13:44;;;;;;;2.57;1.50;;;7.90;99.90;;;;;;5013318;28;20472;-46
2022/09/20 06:16:16;;;;;;;8.47;3.33;;;8.00;99.90;;;;;;4952619;28;20484;-46
2022/09/20 06:18:49;;;;;;;5.07;3.67;;;7.90;99.90;;;;;;5000554;28;20832;-47
2022/09/20 06:21:25;;;;;;;5.60;4.77;;;7.80;99.90;;;;;;5013492;28;20502;-45
2022/09/20 06:23:57;;;;;;;5.17;3.23;;;7.90;99.90;;;;;;5013367;28;20478;-46
2022/09/20 06:26:28;;;;;;;3.80;3.50;;;7.80;99.90;;;;;;5013298;28;20456;-47
2022/09/20 06:29:00;;;;;;;5.90;3.70;;;7.90;99.90;;;;;;5012855;28;20479;-49
2022/09/20 06:31:28;;;;;;;5.73;3.13;;;7.90;99.90;;;;;;5013336;28;20506;-46
2022/09/20 06:33:58;;;;;;;4.23;2.67;;;7.90;99.90;;;;;;5011025;28;20494;-47
2022/09/20 06:42:09;;;;;;;8.10;3.70;;;8.20;99.90;;;;;;5012975;28;20994;-45
2022/09/20 06:44:40;;;;;;;4.80;3.30;;;8.30;99.90;;;;;;5013020;28;20506;-46
2022/09/20 06:47:10;;;;;;;3.93;3.07;;;8.50;99.90;;;;;;5012818;28;20467;-46
2022/09/20 06:49:38;;;;;;;5.90;3.60;;;8.50;99.90;;;;;;5012131;28;20936;-46
2022/09/20 06:52:05;;;;;;;3.80;3.13;;;8.40;99.90;;;;;;5012841;28;20946;-48
2022/09/20 06:54:33;;;;;;;2.83;2.60;;;8.40;99.90;;;;;;5012747;28;20447;-46
2022/09/20 06:57:03;;;;;;;2.90;2.30;;;8.40;99.90;;;;;;5012529;28;20977;-45
2022/09/20 06:59:30;;;;;;;4.50;4.10;;;8.40;99.90;;;;;;5011586;28;20541;-46
2022/09/20 07:01:57;;;;;;;5.83;3.50;;;8.60;99.90;;;;;;5012678;28;20933;-46
2022/09/20 07:04:26;;;;;;;6.70;3.93;;;8.50;99.90;;;;;;5012724;28;20505;-46
2022/09/20 07:06:54;;;;;;;5.10;3.07;;;8.60;99.90;;;;;;5012044;28;20581;-45
2022/09/20 07:09:21;;;;;;;5.63;2.80;;;8.70;99.90;;;;;;5011739;28;20546;-45
2022/09/20 07:11:48;;;;;;;4.73;2.50;;;8.60;99.90;;;;;;5012712;28;20455;-46
2022/09/20 07:14:15;;;;;;;10.20;3.93;;;8.20;99.90;;;;;;5012550;28;20439;-46
2022/09/20 07:16:42;;;;;;;14.23;10.07;;;8.20;99.90;;;;;;5012303;28;20476;-45
2022/09/20 07:19:09;;;;;;;4.77;4.00;;;8.10;99.90;;;;;;5011494;28;20900;-47
2022/09/20 07:21:37;;;;;;;3.00;2.20;;;7.90;99.90;;;;;;5011796;28;20513;-46
2022/09/20 07:24:04;;;;;;;2.37;1.90;;;8.00;99.90;;;;;;5012407;28;20447;-45
2022/09/20 07:26:32;;;;;;;2.00;1.40;;;8.10;99.90;;;;;;5012223;28;20467;-47
2022/09/20 07:29:00;;;;;;;2.10;1.50;;;8.10;99.90;;;;;;5011318;28;20439;-44
2022/09/20 07:31:28;;;;;;;4.03;1.33;;;8.30;99.90;;;;;;5011896;28;20855;-44
2022/09/20 07:33:55;;;;;;;1.47;1.20;;;8.50;99.90;;;;;;5010445;28;20447;-46
2022/09/20 07:36:22;;;;;;;2.53;1.87;;;8.60;99.90;;;;;;5011955;28;20463;-48
2022/09/20 07:38:52;;;;;;;4.33;1.70;;;8.70;99.90;;;;;;5011160;28;21030;-46
2022/09/20 07:41:21;;;;;;;3.77;2.33;;;8.80;99.90;;;;;;5011966;28;20431;-46
2022/09/20 07:43:49;;;;;;;2.20;1.73;;;8.80;99.90;;;;;;5011793;28;20526;-47
2022/09/20 07:46:17;;;;;;;3.70;2.23;;;8.90;99.90;;;;;;5011711;28;20977;-49
2022/09/20 07:48:44;;;;;;;2.73;2.10;;;8.90;99.90;;;;;;5011434;28;20451;-47
2022/09/20 07:51:12;;;;;;;3.43;2.13;;;8.90;99.90;;;;;;5011966;28;20638;-48
2022/09/20 07:53:40;;;;;;;2.43;2.00;;;9.00;99.90;;;;;;5011568;28;20941;-46
2022/09/20 07:56:12;;;;;;;3.73;1.73;;;9.10;99.90;;;;;;5011445;28;20452;-46
2022/09/20 07:58:39;;;;;;;2.87;2.30;;;9.20;99.90;;;;;;5011362;28;20537;-44
2022/09/20 08:01:08;;;;;;;3.20;2.20;;;8.70;99.90;;;;;;5011229;28;20451;-45
2022/09/20 08:03:36;;;;;;;5.83;2.43;;;8.70;99.90;;;;;;5011445;28;20479;-46
2022/09/20 08:06:05;;;;;;;6.47;3.67;;;8.70;99.90;;;;;;5011525;28;20463;-46
2022/09/20 08:08:35;;;;;;;3.10;2.73;;;8.80;99.90;;;;;;5011478;28;20439;-45
2022/09/20 08:11:05;;;;;;;3.57;2.70;;;9.00;99.90;;;;;;5010924;28;20448;-49
2022/09/20 08:13:36;;;;;;;2.33;2.13;;;9.20;99.90;;;;;;5011551;28;20847;-49
2022/09/20 08:16:03;;;;;;;3.27;2.63;;;9.30;99.90;;;;;;5011363;28;20557;-44
2022/09/20 08:18:31;;;;;;;4.10;2.20;;;9.00;99.90;;;;;;5010567;28;20467;-46
2022/09/20 08:21:05;;;;;;;3.20;2.10;;;9.00;99.90;;;;;;5010670;28;20451;-47
2022/09/20 08:23:33;;;;;;;4.03;2.70;;;8.80;99.90;;;;;;5011143;28;20525;-47
2022/09/20 08:26:01;;;;;;;3.03;2.23;;;8.90;99.90;;;;;;5011107;28;20931;-45
2022/09/20 08:28:28;;;;;;;3.30;2.20;;;9.00;99.90;;;;;;5011179;28;20964;-46
2022/09/20 08:31:02;;;;;;;2.50;2.03;;;8.90;99.90;;;;;;5010578;28;20944;-46
2022/09/20 08:33:29;;;;;;;4.50;1.80;;;9.10;99.90;;;;;;5010248;28;20530;-47
2022/09/20 08:35:57;;;;;;;3.27;2.23;;;9.20;99.90;;;;;;5010756;28;20519;-46
2022/09/20 08:38:26;;;;;;;3.40;2.60;;;9.40;99.90;;;;;;5011003;28;20452;-46
2022/09/20 08:40:56;;;;;;;2.53;1.93;;;9.20;99.90;;;;;;5010577;28;20467;-46
2022/09/20 08:43:28;;;;;;;2.70;1.83;;;9.30;99.90;;;;;;5011188;28;20474;-45
2022/09/20 08:45:56;;;;;;;1.53;1.23;;;9.40;99.90;;;;;;5011523;28;20561;-45
2022/09/20 08:48:28;;;;;;;2.10;1.50;;;9.50;99.90;;;;;;5010999;28;20452;-46
2022/09/20 08:50:56;;;;;;;2.00;1.33;;;9.60;99.90;;;;;;5010695;28;20799;-46
2022/09/20 08:53:23;;;;;;;3.00;1.70;;;9.70;99.90;;;;;;5011144;28;20505;-47
2022/09/20 08:55:50;;;;;;;2.50;1.37;;;9.80;99.90;;;;;;5010996;28;20906;-46
2022/09/20 08:58:18;;;;;;;2.80;1.10;;;9.90;99.90;;;;;;5010803;28;20513;-47
2022/09/20 09:00:46;;;;;;;2.40;1.60;;;10.00;99.90;;;;;;5010417;28;20476;-46
2022/09/20 09:03:16;;;;;;;3.27;1.60;;;9.90;99.90;;;;;;5010948;28;20475;-46
2022/09/20 09:05:46;;;;;;;3.10;2.00;;;9.60;99.90;;;;;;5010610;28;20949;-45
2022/09/20 09:08:15;;;;;;;6.30;1.60;;;10.10;99.90;;;;;;5011142;28;20483;-49
2022/09/20 09:10:45;;;;;;;5.70;2.20;;;10.30;99.90;;;;;;5010194;28;20432;-46
2022/09/20 09:13:22;;;;;;;1.57;1.20;;;10.00;99.90;;;;;;5010982;28;20506;-49
2022/09/20 09:15:56;;;;;;;1.70;1.20;;;9.70;99.90;;;;;;5010823;28;20542;-46
2022/09/20 09:18:31;;;;;;;1.50;1.30;;;9.60;99.90;;;;;;5010873;28;20484;-46
2022/09/20 09:21:03;;;;;;;1.87;1.60;;;9.60;99.90;;;;;;5010184;28;20501;-48
2022/09/20 09:23:34;;;;;;;3.20;2.10;;;9.70;99.90;;;;;;5010637;28;20509;-46
2022/09/20 09:26:05;;;;;;;2.57;1.90;;;9.80;99.90;;;;;;5011001;28;20494;-46
2022/09/20 09:28:35;;;;;;;3.57;1.50;;;9.90;99.90;;;;;;5010638;28;20876;-46
2022/09/20 09:31:14;;;;;;;3.23;1.87;;;10.00;99.90;;;;;;5013179;28;20474;-47
2022/09/20 09:33:45;;;;;;;2.00;1.30;;;10.10;99.90;;;;;;5012834;28;20517;-47
2022/09/20 09:36:17;;;;;;;2.33;1.20;;;9.90;99.90;;;;;;5014162;28;20459;-45
2022/09/20 09:38:46;;;;;;;1.23;1.07;;;10.10;99.90;;;;;;5013687;28;20479;-46
2022/09/20 09:41:25;;;;;;;2.70;1.27;;;10.20;99.90;;;;;;5014432;28;20450;-45
2022/09/20 09:43:59;;;;;;;2.10;1.50;;;10.30;99.90;;;;;;5014315;28;20434;-47
2022/09/20 09:46:30;;;;;;;2.30;1.47;;;10.40;99.90;;;;;;5013962;28;20545;-48
2022/09/20 09:49:09;;;;;;;2.03;1.20;;;10.40;99.90;;;;;;5013549;28;20451;-45
2022/09/20 09:51:37;;;;;;;2.73;1.43;;;10.60;99.90;;;;;;5014120;28;20454;-49
2022/09/20 09:54:07;;;;;;;1.73;1.20;;;10.60;99.90;;;;;;5013956;28;20444;-47
2022/09/20 09:56:46;;;;;;;1.87;1.10;;;10.60;99.90;;;;;;5013765;28;20455;-45
2022/09/20 09:59:58;;;;;;;1.73;1.30;;;10.60;99.90;;;;;;5013213;28;20566;-46
2022/09/20 10:03:15;;;;;;;4.80;1.30;;;10.50;99.90;;;;;;4953063;29;20938;-49
2022/09/20 10:05:56;;;;;;;1.80;1.30;;;10.20;99.90;;;;;;4948221;28;20486;-47
2022/09/20 10:08:34;;;;;;;1.70;1.20;;;10.30;99.90;;;;;;5013630;28;20451;-46
2022/09/20 10:11:11;;;;;;;3.00;1.17;;;10.10;99.90;;;;;;5012937;28;20475;-45
2022/09/20 10:13:49;;;;;;;2.43;1.40;;;10.30;99.90;;;;;;5013788;28;20928;-46
2022/09/20 10:16:30;;;;;;;1.87;1.50;;;10.60;99.90;;;;;;5014747;28;20475;-46
2022/09/20 10:19:05;;;;;;;1.83;1.10;;;10.60;99.90;;;;;;5012638;28;20478;-46
2022/09/20 10:21:42;;;;;;;1.63;1.37;;;10.60;99.90;;;;;;5013112;28;20461;-49
2022/09/20 10:24:25;;;;;;;2.60;1.47;;;10.70;99.90;;;;;;5012440;28;20471;-46
2022/09/20 10:27:12;;;;;;;2.10;1.47;;;10.80;99.90;;;;;;5013026;28;20503;-46
2022/09/20 10:29:51;;;;;;;2.00;1.60;;;10.90;99.90;;;;;;5012495;28;20498;-48
2022/09/20 10:32:33;;;;;;;2.40;1.40;;;11.00;99.90;;;;;;5018606;28;20462;-49
2022/09/20 10:35:22;;;;;;;2.43;1.10;;;11.10;99.90;;;;;;5028663;28;20477;-46
2022/09/20 10:38:20;;;;;;;2.30;1.43;;;11.10;99.90;;;;;;5030053;28;20642;-45
2022/09/20 10:44:04;;;;;;;1.53;1.30;;;11.10;99.90;;;;;;5012975;28;20427;-48
2022/09/20 10:46:38;;;;;;;2.23;1.60;;;11.30;99.90;;;;;;5012635;28;20530;-46
2022/09/20 10:49:18;;;;;;;1.80;1.30;;;11.40;99.90;;;;;;5011925;28;20952;-46
2022/09/20 10:51:51;;;;;;;2.20;1.30;;;11.50;99.90;;;;;;5012691;28;20470;-47
2022/09/20 10:54:33;;;;;;;2.10;1.40;;;11.70;99.90;;;;;;5012680;28;20455;-46
2022/09/20 10:57:18;;;;;;;2.70;1.47;;;11.60;99.90;;;;;;5012482;28;20845;-46
2022/09/20 10:59:52;;;;;;;1.87;1.50;;;11.60;99.90;;;;;;5011668;28;20989;-46
2022/09/20 11:02:36;;;;;;;2.80;1.60;;;11.50;99.90;;;;;;5011223;28;20435;-48
2022/09/20 11:05:33;;;;;;;2.43;1.67;;;11.50;99.90;;;;;;5011540;28;20486;-48
2022/09/20 11:08:09;;;;;;;1.93;1.43;;;11.60;99.90;;;;;;5012160;28;21005;-46
2022/09/20 11:10:41;;;;;;;2.80;1.53;;;11.60;99.90;;;;;;5011539;28;20456;-46
2022/09/20 11:13:20;;;;;;;2.33;1.40;;;11.60;99.90;;;;;;5012440;28;20436;-47
2022/09/20 11:15:52;;;;;;;2.70;1.43;;;11.50;99.90;;;;;;5012302;28;20960;-46
2022/09/20 11:18:27;;;;;;;3.10;1.57;;;11.50;99.90;;;;;;5012531;28;20478;-47
2022/09/20 11:21:00;;;;;;;3.50;1.20;;;11.50;99.90;;;;;;5011915;28;20476;-48
2022/09/20 11:23:41;;;;;;;1.77;1.10;;;11.60;99.90;;;;;;5012394;28;20788;-47
2022/09/20 11:26:11;;;;;;;2.50;1.37;;;11.70;99.90;;;;;;5012218;28;20503;-47
2022/09/20 11:28:45;;;;;;;1.37;1.07;;;11.80;99.90;;;;;;5011902;28;20448;-47
2022/09/20 11:31:22;;;;;;;2.17;0.93;;;11.80;99.90;;;;;;5012126;28;20494;-49
2022/09/20 11:33:53;;;;;;;1.97;1.33;;;11.70;99.90;;;;;;5010851;28;20459;-47
2022/09/20 11:36:24;;;;;;;2.50;1.67;;;11.70;99.90;;;;;;5012307;28;20462;-47
2022/09/20 11:38:57;;;;;;;1.40;1.10;;;11.80;99.90;;;;;;5011624;28;20460;-46
2022/09/20 11:41:27;;;;;;;2.13;1.70;;;11.90;99.90;;;;;;5011732;28;20475;-47
2022/09/20 11:44:00;;;;;;;2.10;1.37;;;11.90;99.90;;;;;;5012663;28;20923;-49
2022/09/20 11:46:31;;;;;;;2.90;1.60;;;11.90;99.90;;;;;;5011791;28;20989;-48
2022/09/20 11:49:02;;;;;;;2.33;1.43;;;12.00;99.90;;;;;;5013874;28;20452;-49
2022/09/20 11:52:00;;;;;;;2.73;1.60;;;12.00;99.90;;;;;;5012530;28;20458;-48
2022/09/20 11:54:54;;;;;;;1.50;1.20;;;12.00;99.90;;;;;;5012730;28;20436;-49
2022/09/20 11:57:23;;;;;;;2.63;1.50;;;12.00;99.90;;;;;;5011206;28;20459;-48
2022/09/20 11:59:55;;;;;;;1.87;1.27;;;12.00;99.90;;;;;;5030712;28;20554;-47
2022/09/20 12:02:29;;;;;;;1.57;1.47;;;12.00;99.90;;;;;;5031295;28;20449;-47
2022/09/20 12:04:57;;;;;;;1.70;1.50;;;11.90;99.90;;;;;;5031878;28;20443;-51
2022/09/20 12:07:29;;;;;;;3.70;1.93;;;12.00;99.90;;;;;;5029229;28;20831;-47
2022/09/20 12:09:58;;;;;;;2.47;2.03;;;12.00;99.90;;;;;;5030772;28;20451;-47
2022/09/20 12:12:35;;;;;;;2.87;1.50;;;12.00;99.90;;;;;;5030940;28;20431;-49
2022/09/20 12:15:06;;;;;;;4.33;1.20;;;12.10;99.90;;;;;;5030194;28;20462;-47
2022/09/20 12:18:02;;;;;;;3.37;2.13;;;12.10;99.90;;;;;;5031073;28;20478;-48
2022/09/20 12:20:57;;;;;;;2.13;1.20;;;12.10;99.90;;;;;;5028432;28;20476;-48
2022/09/20 12:24:10;;;;;;;2.43;1.57;;;12.20;99.90;;;;;;5015839;28;20450;-48
2022/09/20 12:26:45;;;;;;;3.07;1.37;;;12.20;99.90;;;;;;5030137;28;20546;-48
2022/09/20 12:29:46;;;;;;;1.70;1.33;;;12.30;99.90;;;;;;5029664;28;20450;-51
2022/09/20 12:32:43;;;;;;;2.13;1.30;;;12.40;99.90;;;;;;5017335;28;20478;-48
2022/09/20 12:35:57;;;;;;;2.40;1.23;;;12.60;99.90;;;;;;5029530;28;20462;-49
2022/09/20 12:38:32;;;;;;;1.80;1.40;;;12.60;99.90;;;;;;5029887;28;20545;-48
2022/09/20 12:41:14;;;;;;;1.70;1.50;;;12.60;99.90;;;;;;5030383;28;20481;-49
2022/09/20 12:43:53;;;;;;;2.00;1.30;;;12.60;99.90;;;;;;5030437;28;20450;-48
2022/09/20 12:46:24;;;;;;;3.00;1.07;;;12.60;99.90;;;;;;5031162;28;20533;-47
2022/09/20 12:55:26;;;;;;;2.00;1.20;;;12.50;99.90;;;;;;5030882;28;20497;-49
2022/09/20 12:57:57;;;;;;;2.30;1.07;;;12.60;99.90;;;;;;5030614;28;20462;-49
2022/09/20 13:00:37;;;;;;;2.63;1.30;;;12.60;99.90;;;;;;5030153;28;20509;-49
2022/09/20 13:03:23;;;;;;;2.20;1.40;;;12.60;99.90;;;;;;5029748;28;20462;-47
2022/09/20 13:06:22;;;;;;;3.43;1.20;;;12.50;99.90;;;;;;5025874;28;20465;-47
2022/09/20 13:08:54;;;;;;;1.50;1.00;;;12.50;99.90;;;;;;5034615;28;20995;-48
2022/09/20 13:11:26;;;;;;;1.43;0.90;;;12.50;99.90;;;;;;5035312;28;20473;-47
2022/09/20 13:13:57;;;;;;;2.27;1.10;;;12.40;99.90;;;;;;5034262;28;20454;-47
2022/09/20 13:16:30;;;;;;;2.20;1.00;;;12.40;99.90;;;;;;5034787;28;20470;-48
2022/09/20 13:19:04;;;;;;;3.13;1.17;;;12.40;99.90;;;;;;5033664;28;20438;-48
2022/09/20 13:21:36;;;;;;;1.23;0.80;;;12.30;99.90;;;;;;5035024;28;20478;-51
2022/09/20 13:24:05;;;;;;;2.90;1.40;;;12.30;99.90;;;;;;5034447;28;20953;-49
2022/09/20 13:26:35;;;;;;;3.43;2.33;;;12.30;99.90;;;;;;5033947;28;20454;-47
2022/09/20 13:29:06;;;;;;;3.63;1.33;;;12.20;99.90;;;;;;5033558;28;20438;-47
2022/09/20 13:31:34;;;;;;;1.27;0.93;;;12.20;99.90;;;;;;5033386;28;20442;-48
2022/09/20 13:34:22;;;;;;;2.40;1.03;;;12.20;99.90;;;;;;5031193;28;20450;-48
2022/09/20 13:36:54;;;;;;;4.50;1.10;;;12.20;99.90;;;;;;5034180;28;20466;-48
2022/09/20 13:39:29;;;;;;;2.90;1.00;;;12.20;99.90;;;;;;5033395;28;20556;-47
2022/09/20 13:42:02;;;;;;;1.30;0.83;;;12.20;99.90;;;;;;5033679;28;20894;-48
2022/09/20 13:44:32;;;;;;;1.30;0.80;;;12.10;99.90;;;;;;5034126;28;20450;-50
2022/09/20 13:46:59;;;;;;;5.07;0.93;;;12.10;99.90;;;;;;5033976;28;20481;-48
2022/09/20 13:49:31;;;;;;;1.40;0.90;;;12.20;99.90;;;;;;5032857;28;20447;-50
2022/09/20 13:52:20;;;;;;;1.90;1.30;;;12.10;99.90;;;;;;5033904;28;20504;-48
2022/09/20 13:54:47;;;;;;;1.73;0.93;;;12.10;99.90;;;;;;5033713;28;20434;-47
2022/09/20 13:57:19;;;;;;;2.17;1.10;;;12.10;99.90;;;;;;5033817;28;20521;-48
2022/09/20 13:59:47;;;;;;;3.03;0.97;;;12.10;99.90;;;;;;5033180;28;20432;-47
2022/09/20 14:02:22;;;;;;;4.37;1.10;;;12.20;99.90;;;;;;5033970;28;20533;-47
2022/09/20 14:04:53;;;;;;;1.10;0.80;;;12.20;99.90;;;;;;5034124;28;20500;-47